Time,TemperatureF,DewpointF,PressureIn,WindDirection,WindDirectionDegrees,WindSpeedMPH,WindSpeedGustMPH,Humidity,HourlyPrecipIn,Conditions,Clouds,dailyrainin,SoftwareType,DateUTC
2013-02-06 00:00:00,31.2,25.8,30.00,West,270,0.0,0.0,80,0.00,,,0.00,VWS V14.01,2013-02-06 05:00:00,
2013-02-06 00:15:00,31.0,25.3,30.00,West,270,0.0,0.0,79,0.00,,,0.00,VWS V14.01,2013-02-06 05:15:00,
2013-02-06 00:30:00,31.0,25.3,30.01,West,270,0.0,0.0,79,0.00,,,0.00,VWS V14.01,2013-02-06 05:30:00,
2013-02-06 00:45:00,30.9,25.8,30.02,West,270,0.0,0.0,81,0.00,,,0.00,VWS V14.01,2013-02-06 05:45:00,
2013-02-06 01:00:00,30.6,25.8,30.02,West,270,0.0,0.0,82,0.00,,,0.00,VWS V14.01,2013-02-06 06:00:00,
2013-02-06 01:15:00,30.4,25.9,30.03,West,270,0.0,0.0,83,0.00,,,0.00,VWS V14.01,2013-02-06 06:15:00,
2013-02-06 01:30:00,30.3,25.5,30.03,West,270,0.0,0.0,82,0.00,,,0.00,VWS V14.01,2013-02-06 06:30:00,
2013-02-06 01:45:00,30.0,24.6,30.04,West,270,0.0,0.0,80,0.00,,,0.00,VWS V14.01,2013-02-06 06:45:00,
2013-02-06 02:00:00,29.8,23.8,30.05,West,270,0.0,0.0,78,0.00,,,0.00,VWS V14.01,2013-02-06 07:00:00,
2013-02-06 02:15:00,29.7,23.4,30.06,West,270,0.0,0.0,77,0.00,,,0.00,VWS V14.01,2013-02-06 07:15:00,
2013-02-06 02:30:00,29.4,23.1,30.07,West,270,0.0,0.0,77,0.00,,,0.00,VWS V14.01,2013-02-06 07:30:00,
2013-02-06 02:45:00,29.3,21.7,30.08,West,270,0.0,0.0,73,0.00,,,0.00,VWS V14.01,2013-02-06 07:45:00,
2013-02-06 03:00:00,29.0,21.1,30.08,West,270,0.0,0.0,72,0.00,,,0.00,VWS V14.01,2013-02-06 08:00:00,
2013-02-06 03:15:00,28.8,21.2,30.08,West,270,0.0,0.0,73,0.00,,,0.00,VWS V14.01,2013-02-06 08:15:00,
2013-02-06 03:30:00,28.8,21.2,30.09,West,270,0.0,0.0,73,0.00,,,0.00,VWS V14.01,2013-02-06 08:30:00,
2013-02-06 03:45:00,28.8,20.9,30.08,West,270,0.0,0.0,72,0.00,,,0.00,VWS V14.01,2013-02-06 08:45:00,
2013-02-06 04:00:00,28.8,21.2,30.09,West,270,0.0,0.0,73,0.00,,,0.00,VWS V14.01,2013-02-06 09:00:00,
2013-02-06 04:15:00,28.8,21.2,30.09,West,270,0.0,0.0,73,0.00,,,0.00,VWS V14.01,2013-02-06 09:15:00,
2013-02-06 04:30:00,29.0,21.4,30.10,West,270,0.0,0.0,73,0.00,,,0.00,VWS V14.01,2013-02-06 09:30:00,
2013-02-06 04:45:00,28.8,20.9,30.10,West,270,0.0,0.0,72,0.00,,,0.00,VWS V14.01,2013-02-06 09:45:00,
2013-02-06 05:00:00,29.0,21.1,30.10,West,270,0.0,0.0,72,0.00,,,0.00,VWS V14.01,2013-02-06 10:00:00,
2013-02-06 05:15:00,28.8,21.2,30.12,West,270,0.0,0.0,73,0.00,,,0.00,VWS V14.01,2013-02-06 10:15:00,
2013-02-06 05:30:00,28.8,21.2,30.13,West,270,0.0,0.0,73,0.00,,,0.00,VWS V14.01,2013-02-06 10:30:00,
2013-02-06 05:45:00,28.8,21.6,30.14,West,270,0.0,0.0,74,0.00,,,0.00,VWS V14.01,2013-02-06 10:45:00,
2013-02-06 06:00:00,28.7,21.5,30.14,West,270,0.0,0.0,74,0.00,,,0.00,VWS V14.01,2013-02-06 11:00:00,
2013-02-06 06:15:00,28.8,20.9,30.15,West,270,0.0,0.0,72,0.00,,,0.00,VWS V14.01,2013-02-06 11:15:00,
2013-02-06 06:30:00,28.8,20.6,30.15,West,270,0.0,0.0,71,0.00,,,0.00,VWS V14.01,2013-02-06 11:30:00,
2013-02-06 06:45:00,29.0,20.1,30.16,West,270,0.0,0.0,69,0.00,,,0.00,VWS V14.01,2013-02-06 11:45:00,
2013-02-06 07:00:00,29.1,19.9,30.16,West,270,0.0,0.0,68,0.00,,,0.00,VWS V14.01,2013-02-06 12:00:00,
2013-02-06 07:15:00,29.0,20.1,30.17,West,270,0.0,0.0,69,0.00,,,0.00,VWS V14.01,2013-02-06 12:15:00,
2013-02-06 07:30:00,29.0,19.4,30.17,West,270,0.0,0.0,67,0.00,,,0.00,VWS V14.01,2013-02-06 12:30:00,
2013-02-06 07:45:00,29.0,19.1,30.17,West,270,0.0,0.0,66,0.00,,,0.00,VWS V14.01,2013-02-06 12:45:00,
2013-02-06 08:00:00,28.7,20.2,30.18,West,270,0.0,0.0,70,0.00,,,0.00,VWS V14.01,2013-02-06 13:00:00,
2013-02-06 08:15:00,28.2,19.7,30.18,West,270,0.0,0.0,70,0.00,,,0.00,VWS V14.01,2013-02-06 13:15:00,
2013-02-06 08:30:00,28.2,19.4,30.19,West,270,0.0,0.0,69,0.00,,,0.00,VWS V14.01,2013-02-06 13:30:00,
2013-02-06 08:45:00,27.9,20.1,30.19,West,270,0.0,0.0,72,0.00,,,0.00,VWS V14.01,2013-02-06 13:45:00,
2013-02-06 09:00:00,28.2,20.7,30.19,West,270,0.0,0.0,73,0.00,,,0.00,VWS V14.01,2013-02-06 14:00:00,
2013-02-06 09:15:00,29.0,20.8,30.19,West,270,0.0,0.0,71,0.00,,,0.00,VWS V14.01,2013-02-06 14:15:00,
2013-02-06 09:30:00,29.7,19.4,30.19,West,270,0.0,0.0,65,0.00,,,0.00,VWS V14.01,2013-02-06 14:30:00,
2013-02-06 09:45:00,30.4,19.7,30.18,West,270,0.0,0.0,64,0.00,,,0.00,VWS V14.01,2013-02-06 14:45:00,
2013-02-06 10:00:00,31.2,20.1,30.18,West,270,0.0,0.0,63,0.00,,,0.00,VWS V14.01,2013-02-06 15:00:00,
2013-02-06 10:15:00,32.1,19.8,30.19,West,270,0.0,0.0,60,0.00,,,0.00,VWS V14.01,2013-02-06 15:15:00,
2013-02-06 10:30:00,32.5,20.2,30.20,West,270,0.0,0.0,60,0.00,,,0.00,VWS V14.01,2013-02-06 15:30:00,
2013-02-06 10:45:00,33.5,20.7,30.20,West,270,0.0,0.0,59,0.00,,,0.00,VWS V14.01,2013-02-06 15:45:00,
2013-02-06 11:00:00,34.6,21.0,30.22,West,270,0.0,0.0,57,0.00,,,0.00,VWS V14.01,2013-02-06 16:00:00,
2013-02-06 11:15:00,35.5,21.0,30.22,West,270,0.0,0.0,55,0.00,,,0.00,VWS V14.01,2013-02-06 16:15:00,
2013-02-06 11:30:00,36.0,21.8,30.21,West,270,0.0,0.0,56,0.00,,,0.00,VWS V14.01,2013-02-06 16:30:00,
2013-02-06 11:45:00,35.9,22.6,30.22,West,270,0.0,0.0,58,0.00,,,0.00,VWS V14.01,2013-02-06 16:45:00,
2013-02-06 12:00:00,36.6,22.4,30.21,West,270,0.0,0.0,56,0.00,,,0.00,VWS V14.01,2013-02-06 17:00:00,
2013-02-06 12:15:00,36.8,22.6,30.20,West,270,0.0,0.0,56,0.00,,,0.00,VWS V14.01,2013-02-06 17:15:00,
2013-02-06 12:30:00,35.9,22.6,30.20,West,270,0.0,0.0,58,0.00,,,0.00,VWS V14.01,2013-02-06 17:30:00,
2013-02-06 12:45:00,36.5,22.7,30.20,West,270,0.0,0.0,57,0.00,,,0.00,VWS V14.01,2013-02-06 17:45:00,
2013-02-06 13:00:00,38.9,25.8,30.20,West,270,0.0,0.0,59,0.00,,,0.00,VWS V14.01,2013-02-06 18:00:00,
2013-02-06 13:15:00,40.3,25.4,30.19,West,270,0.0,0.0,55,0.00,,,0.00,VWS V14.01,2013-02-06 18:15:00,
2013-02-06 13:30:00,42.3,25.9,30.19,West,270,0.0,0.0,52,0.00,,,0.00,VWS V14.01,2013-02-06 18:30:00,
2013-02-06 13:45:00,41.6,25.8,30.19,West,270,0.0,0.0,53,0.00,,,0.00,VWS V14.01,2013-02-06 18:45:00,
2013-02-06 14:00:00,41.9,25.1,30.19,West,270,0.0,0.0,51,0.00,,,0.00,VWS V14.01,2013-02-06 19:00:00,
2013-02-06 14:15:00,42.9,25.1,30.18,West,270,0.0,0.0,49,0.00,,,0.00,VWS V14.01,2013-02-06 19:15:00,
2013-02-06 14:30:00,43.6,26.2,30.17,West,270,0.0,0.0,50,0.00,,,0.00,VWS V14.01,2013-02-06 19:30:00,
2013-02-06 14:45:00,44.2,24.2,30.16,West,270,0.0,0.0,45,0.00,,,0.00,VWS V14.01,2013-02-06 19:45:00,
2013-02-06 15:00:00,43.5,25.1,30.17,West,270,0.0,0.0,48,0.00,,,0.00,VWS V14.01,2013-02-06 20:00:00,
2013-02-06 15:15:00,44.2,24.8,30.17,West,270,0.0,0.0,46,0.00,,,0.00,VWS V14.01,2013-02-06 20:15:00,
2013-02-06 15:30:00,43.5,25.6,30.18,West,270,0.0,0.0,49,0.00,,,0.00,VWS V14.01,2013-02-06 20:30:00,
2013-02-06 15:45:00,44.3,24.3,30.19,West,270,0.0,0.0,45,0.00,,,0.00,VWS V14.01,2013-02-06 20:45:00,
2013-02-06 16:00:00,42.1,24.8,30.19,West,270,0.0,0.0,50,0.00,,,0.00,VWS V14.01,2013-02-06 21:00:00,
2013-02-06 16:15:00,41.3,25.0,30.19,West,270,0.0,0.0,52,0.00,,,0.00,VWS V14.01,2013-02-06 21:15:00,
2013-02-06 16:30:00,40.5,24.7,30.18,West,270,0.0,0.0,53,0.00,,,0.00,VWS V14.01,2013-02-06 21:30:00,
2013-02-06 16:45:00,39.3,24.5,30.18,West,270,0.0,0.0,55,0.00,,,0.00,VWS V14.01,2013-02-06 21:45:00,
2013-02-06 17:00:00,38.6,24.3,30.18,West,270,0.0,0.0,56,0.00,,,0.00,VWS V14.01,2013-02-06 22:00:00,
2013-02-06 17:15:00,37.5,24.9,30.18,West,270,0.0,0.0,60,0.00,,,0.00,VWS V14.01,2013-02-06 22:15:00,
2013-02-06 17:30:00,36.3,24.9,30.17,West,270,0.0,0.0,63,0.00,,,0.00,VWS V14.01,2013-02-06 22:30:00,
2013-02-06 17:45:00,35.8,25.2,30.17,West,270,0.0,0.0,65,0.00,,,0.00,VWS V14.01,2013-02-06 22:45:00,
2013-02-06 18:00:00,35.2,25.4,30.18,West,270,0.0,0.0,67,0.00,,,0.00,VWS V14.01,2013-02-06 23:00:00,
2013-02-06 18:15:00,34.3,25.2,30.19,West,270,0.0,0.0,69,0.00,,,0.00,VWS V14.01,2013-02-06 23:15:00,
2013-02-06 18:30:00,33.4,25.0,30.19,West,270,0.0,0.0,71,0.00,,,0.00,VWS V14.01,2013-02-06 23:30:00,
2013-02-06 18:45:00,32.8,24.8,30.20,West,270,0.0,0.0,72,0.00,,,0.00,VWS V14.01,2013-02-06 23:45:00,
2013-02-06 19:00:00,32.4,25.0,30.19,West,270,0.0,0.0,74,0.00,,,0.00,VWS V14.01,2013-02-07 00:00:00,
2013-02-06 19:15:00,32.1,25.4,30.17,West,270,0.0,0.0,76,0.00,,,0.00,VWS V14.01,2013-02-07 00:15:00,
2013-02-06 19:30:00,32.2,25.5,30.17,West,270,0.0,0.0,76,0.00,,,0.00,VWS V14.01,2013-02-07 00:30:00,
2013-02-06 19:45:00,32.1,25.4,30.17,West,270,0.0,0.0,76,0.00,,,0.00,VWS V14.01,2013-02-07 00:45:00,
2013-02-06 20:00:00,31.9,25.5,30.16,West,270,0.0,0.0,77,0.00,,,0.00,VWS V14.01,2013-02-07 01:00:00,
2013-02-06 20:15:00,31.8,25.7,30.17,West,270,0.0,0.0,78,0.00,,,0.00,VWS V14.01,2013-02-07 01:15:00,
2013-02-06 20:30:00,31.6,25.5,30.17,West,270,0.0,0.0,78,0.00,,,0.00,VWS V14.01,2013-02-07 01:30:00,
2013-02-06 20:45:00,31.5,25.4,30.17,West,270,0.0,0.0,78,0.00,,,0.00,VWS V14.01,2013-02-07 01:45:00,
2013-02-06 21:00:00,31.3,25.2,30.17,West,270,0.0,0.0,78,0.00,,,0.00,VWS V14.01,2013-02-07 02:00:00,
2013-02-06 21:15:00,31.2,25.1,30.17,West,270,0.0,0.0,78,0.00,,,0.00,VWS V14.01,2013-02-07 02:15:00,
2013-02-06 21:30:00,30.7,25.0,30.17,West,270,0.0,0.0,79,0.00,,,0.00,VWS V14.01,2013-02-07 02:30:00,
2013-02-06 21:45:00,30.4,25.0,30.18,West,270,0.0,0.0,80,0.00,,,0.00,VWS V14.01,2013-02-07 02:45:00,
2013-02-06 22:00:00,30.1,25.0,30.17,West,270,0.0,0.0,81,0.00,,,0.00,VWS V14.01,2013-02-07 03:00:00,
2013-02-06 22:15:00,30.0,24.9,30.16,West,270,0.0,0.0,81,0.00,,,0.00,VWS V14.01,2013-02-07 03:15:00,
2013-02-06 22:30:00,29.8,25.3,30.15,West,270,0.0,0.0,83,0.00,,,0.00,VWS V14.01,2013-02-07 03:30:00,
2013-02-06 22:45:00,30.1,25.9,30.14,West,270,0.0,0.0,84,0.00,,,0.00,VWS V14.01,2013-02-07 03:45:00,
2013-02-06 23:00:00,30.4,25.9,30.15,West,270,0.0,0.0,83,0.00,,,0.00,VWS V14.01,2013-02-07 04:00:00,
2013-02-06 23:15:00,30.4,25.9,30.15,West,270,0.0,0.0,83,0.00,,,0.00,VWS V14.01,2013-02-07 04:15:00,
2013-02-06 23:30:00,30.6,26.1,30.15,West,270,0.0,0.0,83,0.00,,,0.00,VWS V14.01,2013-02-07 04:30:00,
2013-02-06 23:45:00,30.9,26.4,30.14,West,270,0.0,0.0,83,0.00,,,0.00,VWS V14.01,2013-02-07 04:45:00,